Time;durP1;ratioP1;P1;durP2;ratioP2;P2;SDS_P1;SDS_P2;PMS_P1;PMS_P2;Temp;Humidity;BMP_temperature;BMP_pressure;BME280_temperature;BME280_humidity;BME280_pressure;Samples;Min_cycle;Max_cycle;Signal;HPM_P1;HPM_P2
2023/09/10 00:03:08;;;;;;;7.03;4.18;;;31.70;61.40;;;;;;10528236;28;20079;-34
2023/09/10 00:08:10;;;;;;;10.40;4.28;;;31.70;61.50;;;;;;10543692;28;20098;-35
2023/09/10 00:13:13;;;;;;;8.50;4.28;;;31.70;61.50;;;;;;10528361;28;20143;-32
2023/09/10 00:18:15;;;;;;;5.88;4.55;;;31.70;61.50;;;;;;10526174;28;20135;-34
2023/09/10 00:23:17;;;;;;;6.25;4.10;;;31.60;61.50;;;;;;10534968;28;20135;-33
2023/09/10 00:28:20;;;;;;;5.40;4.18;;;31.60;61.50;;;;;;10535438;28;20090;-38
2023/09/10 00:33:22;;;;;;;5.15;4.07;;;31.60;61.50;;;;;;10530295;28;20707;-31
2023/09/10 00:38:25;;;;;;;6.72;4.20;;;31.60;61.60;;;;;;10528696;28;20054;-33
2023/09/10 00:43:28;;;;;;;11.63;4.75;;;31.50;61.60;;;;;;10529183;28;20067;-33
2023/09/10 00:48:31;;;;;;;5.90;4.22;;;31.50;61.60;;;;;;10531457;28;20143;-32
2023/09/10 00:53:33;;;;;;;7.45;4.03;;;31.50;61.70;;;;;;10538359;28;20408;-35
2023/09/10 00:58:37;;;;;;;6.15;4.28;;;31.50;61.70;;;;;;10533469;28;20484;-31
2023/09/10 01:03:41;;;;;;;5.47;3.95;;;31.50;61.80;;;;;;10528972;28;20048;-35
2023/09/10 01:08:43;;;;;;;5.22;3.78;;;31.40;61.70;;;;;;10522865;28;21313;-33
2023/09/10 01:13:53;;;;;;;6.55;4.68;;;31.40;61.80;;;;;;10529200;28;20472;-32
2023/09/10 01:18:59;;;;;;;6.20;4.55;;;31.40;61.80;;;;;;10529629;28;20101;-33
2023/09/10 01:24:14;;;;;;;5.82;4.55;;;31.40;61.80;;;;;;10529833;28;20040;-38
2023/09/10 01:29:18;;;;;;;5.88;4.32;;;31.40;62.00;;;;;;10538154;28;20053;-36
2023/09/10 01:34:25;;;;;;;5.05;4.18;;;31.30;61.90;;;;;;10533140;28;20044;-38
2023/09/10 01:39:36;;;;;;;5.38;4.35;;;31.30;62.00;;;;;;10525443;28;20079;-34
2023/09/10 01:44:42;;;;;;;5.20;3.75;;;31.30;62.10;;;;;;10519298;28;20048;-31
2023/09/10 01:49:43;;;;;;;6.63;4.53;;;31.20;62.00;;;;;;10525611;28;20091;-33
2023/09/10 01:54:45;;;;;;;7.28;4.57;;;31.20;62.10;;;;;;10531434;28;20094;-33
2023/09/10 01:59:51;;;;;;;5.95;4.50;;;31.20;62.10;;;;;;10524062;28;20044;-38
2023/09/10 02:04:53;;;;;;;5.25;4.45;;;31.10;62.10;;;;;;10529227;28;20487;-37
2023/09/10 02:09:55;;;;;;;5.30;4.45;;;31.10;62.10;;;;;;10526459;28;20523;-34
2023/09/10 02:14:59;;;;;;;6.07;4.47;;;31.10;62.20;;;;;;10525590;28;20444;-35
2023/09/10 02:20:01;;;;;;;5.57;4.65;;;31.10;62.20;;;;;;10531269;28;20438;-36
2023/09/10 02:25:03;;;;;;;5.38;4.43;;;31.10;62.30;;;;;;10530843;28;20044;-32
2023/09/10 02:30:08;;;;;;;6.40;4.75;;;31.00;62.30;;;;;;10529783;28;20052;-40
2023/09/10 02:35:10;;;;;;;5.45;4.55;;;31.00;62.40;;;;;;10526298;28;20136;-32
2023/09/10 02:40:12;;;;;;;4.78;4.32;;;31.00;62.30;;;;;;10509314;28;20139;-32
2023/09/10 02:45:15;;;;;;;4.95;4.38;;;31.00;62.40;;;;;;10529697;28;20077;-34
2023/09/10 02:50:17;;;;;;;5.40;4.50;;;31.00;62.50;;;;;;10527273;28;20043;-33
2023/09/10 02:55:22;;;;;;;5.40;4.78;;;31.00;62.50;;;;;;10535230;28;20087;-39
2023/09/10 03:15:30;;;;;;;6.00;4.77;;;30.70;62.40;;;;;;10509023;27;20114;-36
2023/09/10 03:20:32;;;;;;;4.97;4.47;;;30.70;62.90;;;;;;10482481;28;20037;-38
2023/09/10 03:25:36;;;;;;;5.65;4.47;;;30.70;62.80;;;;;;10482130;28;20122;-32
2023/09/10 03:30:39;;;;;;;4.57;4.10;;;30.70;62.80;;;;;;10480387;28;20064;-31
2023/09/10 03:35:41;;;;;;;6.50;4.70;;;30.70;62.80;;;;;;10477964;28;20079;-36
2023/09/10 03:40:43;;;;;;;5.03;4.47;;;30.70;62.90;;;;;;10484060;28;20107;-34
2023/09/10 03:45:46;;;;;;;9.32;5.05;;;30.60;62.90;;;;;;10485541;28;20073;-32
2023/09/10 03:50:48;;;;;;;5.53;4.63;;;30.70;62.90;;;;;;10481160;28;20513;-38
2023/09/10 03:55:50;;;;;;;6.13;4.93;;;30.70;62.80;;;;;;10480772;28;20120;-33
2023/09/10 04:00:53;;;;;;;5.47;4.70;;;30.70;63.00;;;;;;10481236;28;20049;-32
2023/09/10 04:05:55;;;;;;;6.18;4.22;;;30.60;63.00;;;;;;10468352;28;20150;-37
2023/09/10 04:10:57;;;;;;;7.10;4.30;;;30.60;62.90;;;;;;10480704;28;20131;-34
2023/09/10 04:16:04;;;;;;;6.30;4.25;;;30.60;63.00;;;;;;10468679;28;20527;-39
2023/09/10 04:21:06;;;;;;;5.15;4.57;;;30.60;63.00;;;;;;10477121;28;20091;-32
2023/09/10 04:26:08;;;;;;;5.25;4.75;;;30.50;63.00;;;;;;10456424;28;20069;-37
2023/09/10 04:31:13;;;;;;;5.85;5.07;;;30.50;63.00;;;;;;10451672;28;20143;-35
2023/09/10 04:36:15;;;;;;;5.35;4.18;;;30.50;63.00;;;;;;10450426;28;20129;-38
2023/09/10 04:41:17;;;;;;;5.05;3.90;;;30.40;63.00;;;;;;10453678;28;20075;-39
2023/09/10 04:46:20;;;;;;;4.72;4.20;;;30.40;63.00;;;;;;10451429;28;20132;-36
2023/09/10 04:51:22;;;;;;;5.10;4.60;;;30.40;63.00;;;;;;10457616;28;20076;-32
2023/09/10 04:56:26;;;;;;;4.85;4.32;;;30.40;63.00;;;;;;10449846;28;20152;-38
2023/09/10 05:01:29;;;;;;;6.95;4.80;;;30.40;63.10;;;;;;10451225;28;20128;-33
2023/09/10 05:06:30;;;;;;;6.85;4.40;;;30.40;63.20;;;;;;10454204;28;20487;-35
2023/09/10 05:11:32;;;;;;;7.22;4.20;;;30.40;63.20;;;;;;10450470;28;20053;-33
2023/09/10 05:16:36;;;;;;;5.70;4.55;;;30.40;63.30;;;;;;10454197;28;20143;-36
2023/09/10 05:21:38;;;;;;;4.97;4.40;;;30.40;63.30;;;;;;10458681;28;20045;-38
2023/09/10 05:26:39;;;;;;;8.07;4.85;;;30.30;63.20;;;;;;10452686;28;20144;-35
2023/09/10 05:31:43;;;;;;;6.40;4.90;;;30.30;63.20;;;;;;10449967;28;20136;-33
2023/09/10 05:36:45;;;;;;;8.98;4.95;;;30.30;63.30;;;;;;10449269;28;20120;-32
2023/09/10 05:41:46;;;;;;;6.38;5.20;;;30.30;63.20;;;;;;10447879;28;20516;-31
2023/09/10 05:46:51;;;;;;;5.18;4.68;;;30.30;63.20;;;;;;10445881;28;20489;-36
2023/09/10 05:51:53;;;;;;;7.13;5.03;;;30.30;63.30;;;;;;10445731;28;20108;-34
2023/09/10 05:56:54;;;;;;;4.95;4.30;;;30.20;63.30;;;;;;10448934;28;20456;-38
2023/09/10 06:01:58;;;;;;;6.45;4.72;;;30.20;63.30;;;;;;10449959;28;20136;-30
2023/09/10 06:07:03;;;;;;;6.50;4.90;;;30.30;63.30;;;;;;10449255;28;20132;-33
2023/09/10 06:12:05;;;;;;;5.90;4.65;;;30.30;63.30;;;;;;10441899;28;20061;-31
2023/09/10 06:17:08;;;;;;;5.13;4.63;;;30.30;63.20;;;;;;10449180;28;20072;-33
2023/09/10 06:22:10;;;;;;;5.72;4.22;;;30.30;63.20;;;;;;10447145;28;20487;-34
2023/09/10 06:27:12;;;;;;;6.57;5.53;;;30.30;63.30;;;;;;10447095;28;20099;-28
2023/09/10 06:32:15;;;;;;;7.00;5.43;;;30.30;63.10;;;;;;10447121;28;20084;-34
2023/09/10 06:37:17;;;;;;;5.95;4.80;;;30.30;63.10;;;;;;10438418;28;20160;-31
2023/09/10 06:42:19;;;;;;;6.55;5.10;;;30.30;63.10;;;;;;10446924;28;20137;-38
2023/09/10 06:47:22;;;;;;;6.80;4.63;;;30.30;62.90;;;;;;10450359;28;20071;-38
2023/09/10 06:52:24;;;;;;;5.72;4.90;;;30.30;63.10;;;;;;10446760;28;20057;-34
2023/09/10 06:57:27;;;;;;;7.85;5.10;;;30.30;62.90;;;;;;10447795;28;20168;-38
2023/09/10 07:02:31;;;;;;;6.10;4.60;;;30.30;62.90;;;;;;10439297;28;20401;-34
2023/09/10 07:07:32;;;;;;;7.85;5.03;;;30.30;62.90;;;;;;10451217;28;20044;-36
2023/09/10 07:12:34;;;;;;;6.40;4.90;;;30.30;62.90;;;;;;10443666;28;20419;-36
2023/09/10 07:17:37;;;;;;;7.03;4.40;;;30.30;62.70;;;;;;10446659;28;20065;-37
2023/09/10 07:22:39;;;;;;;7.53;5.15;;;30.40;63.30;;;;;;10437428;28;20045;-40
2023/09/10 07:27:41;;;;;;;5.75;4.50;;;30.30;62.70;;;;;;10443101;28;20131;-33
2023/09/10 07:32:46;;;;;;;6.55;4.95;;;30.40;62.80;;;;;;10444396;28;20690;-35
2023/09/10 07:37:48;;;;;;;5.82;4.97;;;30.40;62.70;;;;;;10446840;28;20053;-35
2023/09/10 07:42:50;;;;;;;6.10;4.88;;;30.40;62.60;;;;;;10437284;28;20540;-33
2023/09/10 07:47:53;;;;;;;7.63;4.63;;;30.40;62.50;;;;;;10444610;28;20159;-33
2023/09/10 07:52:55;;;;;;;6.55;4.90;;;30.40;62.60;;;;;;10440077;28;20092;-35
2023/09/10 07:57:56;;;;;;;6.18;5.07;;;30.50;62.60;;;;;;10442040;28;20411;-37
2023/09/10 08:03:03;;;;;;;7.10;5.03;;;30.40;62.50;;;;;;10442059;28;20080;-42
2023/09/10 08:08:05;;;;;;;6.55;4.80;;;30.50;62.50;;;;;;10451657;28;20040;-32
2023/09/10 08:13:07;;;;;;;6.47;5.25;;;30.60;62.50;;;;;;10451861;28;20147;-34
2023/09/10 08:18:12;;;;;;;9.02;5.10;;;30.60;62.50;;;;;;10452553;28;20076;-38
2023/09/10 08:23:14;;;;;;;6.22;5.10;;;30.60;62.60;;;;;;10453772;28;20041;-33
2023/09/10 08:28:15;;;;;;;6.75;4.57;;;30.60;62.60;;;;;;10450239;28;20455;-34
2023/09/10 08:33:19;;;;;;;6.72;5.25;;;30.60;62.50;;;;;;10455116;28;20072;-32
2023/09/10 08:38:21;;;;;;;10.05;5.40;;;30.60;62.60;;;;;;10455056;28;20390;-35
2023/09/10 08:43:28;;;;;;;5.60;4.72;;;30.70;62.70;;;;;;10455237;28;20077;-34
2023/09/10 08:48:33;;;;;;;10.20;4.95;;;30.70;62.80;;;;;;10451794;28;20403;-33
2023/09/10 08:53:36;;;;;;;6.05;4.57;;;30.70;62.80;;;;;;10446787;28;20095;-34
2023/09/10 08:58:39;;;;;;;6.22;4.68;;;30.70;62.70;;;;;;10449105;28;20818;-35
2023/09/10 09:03:42;;;;;;;9.25;4.80;;;30.70;62.70;;;;;;10451523;28;20068;-34
2023/09/10 09:08:50;;;;;;;10.82;4.88;;;30.80;62.50;;;;;;10451768;28;20156;-39
2023/09/10 09:13:54;;;;;;;6.57;4.28;;;30.90;62.60;;;;;;10451178;28;20091;-39
2023/09/10 09:18:58;;;;;;;6.40;4.47;;;30.90;62.50;;;;;;10459140;28;20076;-29
2023/09/10 09:24:01;;;;;;;7.18;4.03;;;30.90;62.60;;;;;;10441846;28;20045;-37
2023/09/10 09:29:03;;;;;;;5.10;3.88;;;31.10;62.30;;;;;;10448585;28;20045;-35
2023/09/10 09:34:07;;;;;;;4.82;4.05;;;31.10;62.30;;;;;;10463082;28;20075;-35
2023/09/10 09:39:09;;;;;;;7.13;4.70;;;31.00;62.40;;;;;;10438137;28;20082;-34
2023/09/10 09:44:11;;;;;;;9.60;4.07;;;31.30;61.40;;;;;;10449819;28;20045;-34
2023/09/10 09:49:15;;;;;;;12.50;5.72;;;31.00;62.60;;;;;;10450134;28;20072;-32
2023/09/10 09:54:19;;;;;;;9.75;5.28;;;31.00;63.10;;;;;;10451236;28;20037;-34
2023/09/10 09:59:21;;;;;;;11.27;5.40;;;30.90;62.80;;;;;;10451140;28;20144;-35
2023/09/10 10:04:24;;;;;;;7.43;4.13;;;30.90;63.30;;;;;;10449014;28;20436;-34
2023/09/10 10:09:35;;;;;;;12.73;5.38;;;30.70;63.50;;;;;;10448270;28;20136;-33
2023/09/10 10:14:37;;;;;;;11.77;5.50;;;31.00;63.40;;;;;;10446916;28;20405;-36
2023/09/10 10:19:42;;;;;;;7.95;3.60;;;30.90;63.50;;;;;;10449685;28;20127;-38
2023/09/10 10:24:45;;;;;;;5.25;3.47;;;31.30;62.50;;;;;;10439472;28;20505;-33
2023/09/10 10:29:47;;;;;;;7.35;5.15;;;31.40;62.00;;;;;;10467742;28;20135;-38
2023/09/10 10:34:58;;;;;;;9.05;4.15;;;31.40;62.90;;;;;;10452202;28;20537;-32
2023/09/10 10:40:06;;;;;;;8.33;4.83;;;31.50;62.00;;;;;;10448758;28;20079;-34
2023/09/10 10:45:10;;;;;;;16.90;4.22;;;31.90;61.30;;;;;;10449625;28;20459;-35
2023/09/10 10:50:16;;;;;;;6.55;3.92;;;31.80;60.50;;;;;;10448270;28;20055;-32
2023/09/10 10:55:20;;;;;;;15.25;5.03;;;31.20;61.30;;;;;;10442951;28;20139;-36
2023/09/10 11:00:22;;;;;;;7.78;3.88;;;31.30;62.10;;;;;;10448552;28;20072;-34
2023/09/10 11:05:25;;;;;;;16.48;4.25;;;30.70;61.60;;;;;;10447901;28;20099;-35
2023/09/10 11:10:41;;;;;;;9.38;3.80;;;30.40;63.50;;;;;;10458010;28;20087;-31
2023/09/10 11:16:17;;;;;;;10.75;3.50;;;30.30;62.80;;;;;;10360189;28;20058;-39
2023/09/10 11:21:20;;;;;;;8.30;4.07;;;30.40;61.80;;;;;;10368710;28;20132;-37
2023/09/10 11:26:29;;;;;;;9.80;4.15;;;30.40;61.70;;;;;;10361167;28;20592;-39
2023/09/10 11:31:39;;;;;;;7.68;3.45;;;30.50;60.70;;;;;;10368849;28;20200;-34
2023/09/10 11:36:43;;;;;;;12.55;4.50;;;30.90;62.00;;;;;;10380312;28;20089;-31
2023/09/10 11:41:46;;;;;;;8.60;3.35;;;30.70;59.70;;;;;;10389848;28;20244;-36
2023/09/10 11:46:51;;;;;;;4.72;3.38;;;31.40;60.50;;;;;;10366144;28;20145;-34
2023/09/10 11:51:57;;;;;;;10.88;3.47;;;31.20;59.20;;;;;;10363743;28;20092;-32
2023/09/10 11:56:59;;;;;;;4.20;3.60;;;31.20;58.80;;;;;;10374694;28;20108;-37
2023/09/10 12:02:02;;;;;;;9.98;3.70;;;31.60;61.50;;;;;;10370694;28;20471;-34
2023/09/10 12:07:06;;;;;;;7.40;3.63;;;31.50;57.70;;;;;;10374295;28;20388;-34
2023/09/10 12:12:11;;;;;;;15.88;4.07;;;31.60;58.70;;;;;;10392815;28;20055;-33
2023/09/10 12:17:13;;;;;;;11.02;3.90;;;31.80;59.30;;;;;;10453757;28;20163;-35
2023/09/10 12:22:19;;;;;;;10.45;3.53;;;32.00;57.90;;;;;;10452473;28;20068;-34
2023/09/10 12:27:21;;;;;;;9.93;3.80;;;32.00;57.50;;;;;;10466027;28;20041;-36
2023/09/10 12:32:23;;;;;;;7.95;3.47;;;32.50;56.70;;;;;;10452343;28;20045;-35
2023/09/10 12:37:27;;;;;;;14.43;4.40;;;32.90;57.60;;;;;;10453619;28;20084;-35
2023/09/10 12:42:29;;;;;;;10.32;2.92;;;32.60;56.10;;;;;;10469085;28;20548;-35
2023/09/10 12:47:31;;;;;;;11.00;3.40;;;33.00;57.50;;;;;;10464721;28;20045;-32
2023/09/10 12:52:34;;;;;;;10.32;3.60;;;32.90;56.80;;;;;;10440923;28;20048;-33
2023/09/10 12:57:36;;;;;;;12.80;4.65;;;33.10;55.80;;;;;;10451138;28;20052;-34
2023/09/10 13:02:38;;;;;;;13.88;4.05;;;33.20;56.00;;;;;;10457905;28;20049;-38
2023/09/10 13:07:41;;;;;;;10.10;3.10;;;33.70;55.90;;;;;;10454132;28;20197;-36
2023/09/10 13:12:42;;;;;;;9.60;3.92;;;33.70;56.50;;;;;;10452689;28;20083;-31
2023/09/10 13:17:44;;;;;;;9.40;3.78;;;33.80;55.90;;;;;;10450773;28;20748;-31
2023/09/10 13:22:48;;;;;;;13.38;3.08;;;34.30;55.30;;;;;;10451072;28;20110;-34
2023/09/10 13:27:50;;;;;;;10.68;4.50;;;34.60;55.40;;;;;;10457241;28;20064;-31
2023/09/10 13:32:52;;;;;;;13.07;3.40;;;34.90;55.50;;;;;;10454886;28;20108;-33
2023/09/10 13:37:55;;;;;;;13.30;4.13;;;34.60;53.80;;;;;;10451405;28;20130;-38
2023/09/10 13:42:57;;;;;;;7.32;3.60;;;34.90;53.70;;;;;;10459882;28;20076;-39
2023/09/10 13:47:59;;;;;;;9.63;3.05;;;35.30;53.80;;;;;;10455645;28;20541;-33
2023/09/10 13:53:03;;;;;;;19.05;3.83;;;36.20;53.30;;;;;;10458071;28;20139;-34
2023/09/10 13:58:05;;;;;;;6.05;3.15;;;35.80;52.90;;;;;;10448733;28;20041;-34
2023/09/10 14:03:06;;;;;;;11.07;4.50;;;36.20;51.90;;;;;;10450237;28;20051;-34
2023/09/10 14:08:09;;;;;;;10.80;3.78;;;36.00;51.00;;;;;;10458506;28;20086;-37
2023/09/10 14:13:11;;;;;;;12.85;3.67;;;36.70;51.30;;;;;;10442081;28;20053;-36
2023/09/10 14:18:13;;;;;;;14.73;3.58;;;37.00;50.00;;;;;;10447280;28;20076;-33
2023/09/10 14:23:17;;;;;;;7.30;3.40;;;37.70;48.00;;;;;;10433921;28;20040;-33
2023/09/10 14:28:18;;;;;;;10.05;4.30;;;38.20;49.00;;;;;;10441765;28;20068;-35
2023/09/10 14:33:21;;;;;;;14.88;4.18;;;39.00;50.20;;;;;;10448296;28;20557;-32
2023/09/10 14:38:24;;;;;;;10.55;3.80;;;38.80;48.60;;;;;;10442615;28;20040;-33
2023/09/10 14:43:26;;;;;;;12.63;4.03;;;38.60;48.40;;;;;;10449624;28;20049;-38
2023/09/10 14:48:28;;;;;;;10.60;3.50;;;38.60;47.90;;;;;;10446083;28;20107;-34
2023/09/10 14:53:31;;;;;;;5.55;3.20;;;39.50;47.30;;;;;;10445654;28;20134;-33
2023/09/10 14:58:33;;;;;;;13.98;4.45;;;39.60;46.50;;;;;;10445305;28;20052;-32
2023/09/10 15:03:35;;;;;;;13.18;3.63;;;39.80;46.20;;;;;;10440138;28;20615;-29
2023/09/10 15:08:38;;;;;;;10.25;3.47;;;39.80;48.10;;;;;;10442254;28;20146;-28
2023/09/10 15:13:40;;;;;;;6.57;3.63;;;39.70;51.20;;;;;;10445670;28;20618;-34
2023/09/10 15:18:43;;;;;;;4.57;2.85;;;40.20;47.20;;;;;;10456124;28;20073;-34
2023/09/10 15:23:47;;;;;;;3.70;2.33;;;40.10;48.60;;;;;;10449802;28;20059;-31
2023/09/10 15:28:48;;;;;;;5.20;2.70;;;39.80;51.10;;;;;;10445040;28;20053;-34
2023/09/10 15:33:50;;;;;;;3.42;2.88;;;40.70;52.70;;;;;;10433303;28;20044;-31
2023/09/10 15:38:53;;;;;;;3.30;2.30;;;40.90;50.10;;;;;;10444713;28;20130;-34
2023/09/10 15:43:55;;;;;;;10.35;3.25;;;40.10;54.00;;;;;;10446197;28;20092;-32
2023/09/10 15:48:59;;;;;;;3.63;2.47;;;41.30;51.60;;;;;;10442090;28;20150;-37
2023/09/10 15:54:03;;;;;;;8.80;3.92;;;40.40;52.90;;;;;;10433580;28;20088;-37
2023/09/10 15:59:04;;;;;;;6.80;2.78;;;40.20;54.90;;;;;;10440742;28;20236;-33
2023/09/10 16:04:06;;;;;;;4.50;2.67;;;39.40;49.10;;;;;;10433185;28;20144;-31
2023/09/10 16:09:10;;;;;;;8.75;2.42;;;40.30;51.60;;;;;;10435259;28;20686;-37
2023/09/10 16:14:12;;;;;;;9.13;3.60;;;40.70;53.60;;;;;;10442338;28;20357;-31
2023/09/10 16:19:13;;;;;;;6.55;3.78;;;41.70;46.10;;;;;;10444017;28;20144;-32
2023/09/10 16:24:17;;;;;;;9.35;3.70;;;41.90;46.90;;;;;;10442810;28;20124;-33
2023/09/10 16:29:18;;;;;;;4.63;2.42;;;42.00;46.30;;;;;;10449603;28;20088;-32
2023/09/10 16:34:20;;;;;;;7.45;3.40;;;41.70;52.60;;;;;;10449673;28;20138;-34
2023/09/10 16:39:24;;;;;;;7.53;4.18;;;41.20;47.40;;;;;;10450595;28;20049;-30
2023/09/10 16:44:28;;;;;;;7.57;2.30;;;42.20;47.00;;;;;;10441461;28;20045;-30
2023/09/10 16:49:30;;;;;;;8.80;3.70;;;40.80;56.90;;;;;;10444887;28;20040;-35
2023/09/10 16:54:33;;;;;;;12.95;4.70;;;40.90;50.60;;;;;;10446983;28;20085;-35
2023/09/10 16:59:35;;;;;;;13.20;3.72;;;41.40;48.20;;;;;;10435864;28;20128;-35
2023/09/10 17:04:37;;;;;;;12.20;5.03;;;41.40;53.90;;;;;;10450240;28;20135;-36
2023/09/10 17:09:40;;;;;;;12.93;4.80;;;41.10;48.10;;;;;;10449881;28;20052;-40
2023/09/10 17:14:42;;;;;;;12.88;4.75;;;40.90;48.10;;;;;;10448796;28;20059;-35
2023/09/10 17:19:44;;;;;;;12.48;5.75;;;40.80;48.40;;;;;;10446315;28;20103;-34
2023/09/10 17:24:47;;;;;;;15.10;6.80;;;40.30;53.00;;;;;;10452608;28;20053;-30
2023/09/10 17:29:49;;;;;;;11.85;5.45;;;39.80;51.00;;;;;;10449790;28;20080;-38
2023/09/10 17:34:51;;;;;;;11.82;4.47;;;39.40;51.60;;;;;;10437572;28;20099;-31
2023/09/10 17:39:55;;;;;;;13.35;5.05;;;39.30;53.60;;;;;;10429217;28;20483;-36
2023/09/10 17:44:59;;;;;;;9.25;4.28;;;39.90;56.60;;;;;;10449006;28;20052;-35
2023/09/10 17:50:02;;;;;;;11.88;4.50;;;40.50;59.60;;;;;;10447990;28;20084;-31
2023/09/10 17:55:06;;;;;;;12.98;4.97;;;40.50;60.60;;;;;;10448807;28;20060;-33
2023/09/10 18:00:09;;;;;;;9.95;4.28;;;40.40;57.10;;;;;;10449544;28;20091;-31
2023/09/10 18:05:11;;;;;;;9.07;4.68;;;39.40;59.10;;;;;;10448794;28;20098;-36
2023/09/10 18:10:14;;;;;;;5.32;3.45;;;39.10;60.90;;;;;;10450625;28;20076;-34
2023/09/10 18:15:17;;;;;;;5.88;2.95;;;39.10;60.70;;;;;;10440635;28;20057;-40
2023/09/10 18:20:19;;;;;;;3.22;2.78;;;38.90;61.60;;;;;;10449335;28;20057;-32
2023/09/10 18:25:22;;;;;;;4.60;3.15;;;38.50;62.40;;;;;;10442903;28;20079;-34
2023/09/10 18:30:26;;;;;;;3.50;2.75;;;38.20;63.20;;;;;;10445474;28;20127;-40
2023/09/10 18:35:28;;;;;;;3.42;2.67;;;38.00;63.50;;;;;;10438512;28;20067;-35
2023/09/10 18:40:32;;;;;;;3.72;3.17;;;37.80;63.60;;;;;;10443350;28;20087;-30
2023/09/10 18:45:33;;;;;;;5.43;3.20;;;37.60;63.30;;;;;;10437230;28;20106;-37
2023/09/10 18:50:35;;;;;;;4.63;3.75;;;37.20;63.60;;;;;;10438463;28;20135;-33
2023/09/10 18:55:39;;;;;;;5.15;4.10;;;37.00;63.70;;;;;;10438592;28;20048;-36
2023/09/10 19:00:41;;;;;;;8.05;4.05;;;36.80;63.60;;;;;;10435899;28;20056;-32
2023/09/10 19:05:43;;;;;;;6.57;4.47;;;36.70;64.30;;;;;;10445215;28;20056;-35
2023/09/10 19:10:51;;;;;;;5.30;4.15;;;36.80;65.20;;;;;;10443089;28;20119;-40
2023/09/10 19:15:52;;;;;;;4.60;4.05;;;36.70;64.70;;;;;;10435891;28;20491;-40
2023/09/10 19:20:54;;;;;;;5.85;4.40;;;36.40;64.70;;;;;;10442745;28;20128;-34
2023/09/10 19:25:58;;;;;;;6.80;5.30;;;36.20;64.60;;;;;;10442513;28;20076;-40
2023/09/10 19:30:59;;;;;;;6.47;5.25;;;36.00;64.30;;;;;;10443140;28;20734;-34
2023/09/10 19:36:03;;;;;;;8.70;5.60;;;35.90;64.20;;;;;;10443866;28;20080;-29
2023/09/10 19:41:06;;;;;;;9.55;5.28;;;35.70;63.60;;;;;;10440680;28;20675;-31
2023/09/10 19:46:08;;;;;;;6.47;5.40;;;35.60;63.60;;;;;;10438074;28;20057;-34
2023/09/10 19:51:10;;;;;;;12.88;5.22;;;35.50;63.50;;;;;;10443602;28;20067;-35
2023/09/10 19:56:15;;;;;;;8.73;5.60;;;35.30;63.40;;;;;;10446990;28;20120;-38
2023/09/10 20:01:17;;;;;;;9.35;5.13;;;35.30;63.50;;;;;;10445469;28;20128;-36
2023/09/10 20:06:19;;;;;;;10.10;5.13;;;35.30;63.50;;;;;;10451602;28;20134;-37
2023/09/10 20:11:22;;;;;;;10.70;5.63;;;35.20;63.80;;;;;;10448706;28;20160;-34
2023/09/10 20:16:24;;;;;;;9.55;5.38;;;35.10;63.80;;;;;;10451452;28;20076;-35
2023/09/10 20:21:26;;;;;;;8.07;5.03;;;35.00;64.20;;;;;;10446562;28;20111;-37
2023/09/10 20:26:29;;;;;;;10.82;5.45;;;35.00;64.20;;;;;;10448621;28;20068;-31
2023/09/10 20:31:31;;;;;;;8.02;5.07;;;34.90;64.20;;;;;;10447805;28;20623;-33
2023/09/10 20:36:33;;;;;;;5.75;4.18;;;34.80;64.40;;;;;;10451304;28;20080;-35
2023/09/10 20:41:36;;;;;;;5.95;4.32;;;34.80;64.60;;;;;;10454919;28;20587;-34
2023/09/10 20:46:38;;;;;;;6.93;4.68;;;34.70;64.80;;;;;;10447857;28;20076;-36
2023/09/10 20:51:40;;;;;;;5.78;4.38;;;34.60;64.60;;;;;;10447329;28;20049;-39
2023/09/10 20:56:43;;;;;;;4.72;3.85;;;34.40;64.50;;;;;;10450432;28;20554;-35
2023/09/10 21:01:45;;;;;;;8.43;4.38;;;34.40;64.40;;;;;;10454443;28;20077;-37
2023/09/10 21:06:47;;;;;;;4.88;3.97;;;34.30;64.30;;;;;;10462718;28;20040;-37
2023/09/10 21:11:50;;;;;;;7.90;4.05;;;34.30;64.20;;;;;;10450908;28;20071;-36
2023/09/10 21:16:52;;;;;;;5.63;3.83;;;34.20;64.00;;;;;;10450090;28;20056;-34
2023/09/10 21:21:54;;;;;;;7.30;4.13;;;34.10;63.90;;;;;;10458069;28;20571;-38
2023/09/10 21:26:57;;;;;;;4.95;4.20;;;34.10;63.90;;;;;;10442993;28;20087;-32
2023/09/10 21:31:59;;;;;;;8.13;4.13;;;34.00;63.90;;;;;;10451339;28;20083;-36
2023/09/10 21:37:01;;;;;;;7.68;4.05;;;34.00;63.80;;;;;;10451761;28;20071;-39
2023/09/10 21:42:05;;;;;;;5.45;4.05;;;33.90;63.90;;;;;;10456480;28;20076;-36
2023/09/10 21:47:07;;;;;;;5.82;3.92;;;33.80;63.50;;;;;;10432576;28;20596;-36
2023/09/10 21:52:08;;;;;;;5.63;3.72;;;33.70;63.80;;;;;;10449349;28;20051;-36
2023/09/10 21:57:12;;;;;;;7.55;4.22;;;33.70;63.40;;;;;;10449137;28;20094;-36
2023/09/10 22:02:13;;;;;;;5.70;3.65;;;33.70;64.20;;;;;;10443367;28;20083;-37
2023/09/10 22:07:18;;;;;;;6.22;3.28;;;33.60;63.70;;;;;;10460138;28;20052;-39
2023/09/10 22:12:21;;;;;;;4.30;3.45;;;33.60;63.50;;;;;;10445517;28;20481;-37
2023/09/10 22:17:23;;;;;;;5.72;3.80;;;33.50;63.60;;;;;;10447475;28;20053;-36
2023/09/10 22:22:25;;;;;;;4.10;3.70;;;33.50;63.50;;;;;;10446842;28;20079;-35
2023/09/10 22:27:28;;;;;;;4.70;3.20;;;33.40;63.40;;;;;;10442973;28;20128;-38
2023/09/10 22:32:30;;;;;;;8.15;3.88;;;33.40;63.50;;;;;;10443210;28;20099;-37
2023/09/10 22:37:32;;;;;;;6.53;3.75;;;33.40;63.60;;;;;;10445216;28;20151;-35
2023/09/10 22:42:35;;;;;;;5.97;3.63;;;33.30;63.50;;;;;;10437336;28;20125;-41
2023/09/10 22:47:38;;;;;;;12.30;3.65;;;33.20;63.50;;;;;;10443195;28;20665;-40
2023/09/10 22:52:40;;;;;;;6.03;3.78;;;33.20;63.50;;;;;;10438065;28;20120;-40
2023/09/10 22:57:43;;;;;;;4.18;3.78;;;33.20;63.50;;;;;;10442650;28;20057;-36
2023/09/10 23:02:45;;;;;;;7.55;3.45;;;33.20;63.50;;;;;;10445502;28;20052;-32
2023/09/10 23:07:47;;;;;;;4.35;3.85;;;33.20;63.50;;;;;;10438609;28;20080;-37
2023/09/10 23:12:53;;;;;;;5.15;3.55;;;33.10;63.60;;;;;;10457227;28;20053;-34
2023/09/10 23:17:55;;;;;;;5.95;3.78;;;33.10;63.50;;;;;;10446454;28;20053;-40
2023/09/10 23:23:00;;;;;;;6.45;3.50;;;33.00;63.60;;;;;;10442225;28;20471;-39
2023/09/10 23:28:04;;;;;;;7.03;3.65;;;33.00;63.50;;;;;;10444756;28;20049;-38
2023/09/10 23:33:06;;;;;;;7.03;3.60;;;32.90;63.50;;;;;;10450282;28;20049;-38
2023/09/10 23:38:08;;;;;;;5.75;3.60;;;32.90;63.60;;;;;;10451749;28;20107;-39
2023/09/10 23:43:11;;;;;;;5.88;3.92;;;32.90;63.70;;;;;;10454491;28;20118;-39
2023/09/10 23:48:13;;;;;;;6.20;3.97;;;32.80;63.60;;;;;;10450027;28;20114;-38
2023/09/10 23:53:15;;;;;;;7.82;3.67;;;32.80;63.70;;;;;;10453215;28;20049;-36
2023/09/10 23:58:18;;;;;;;9.02;3.63;;;32.80;64.40;;;;;;10455484;28;20085;-36
